createdAt,value
2019-03-06T00:00:58.133Z,100401.00
2019-03-06T00:03:27.977Z,100403.59
2019-03-06T00:05:57.740Z,100410.14
2019-03-06T00:08:27.488Z,100409.25
2019-03-06T00:10:57.250Z,100415.78
2019-03-06T00:13:26.995Z,100411.88
2019-03-06T00:15:56.765Z,100414.48
2019-03-06T00:18:26.591Z,100413.19
2019-03-06T00:20:56.367Z,100416.21
2019-03-06T00:23:26.112Z,100424.91
2019-03-06T00:25:55.971Z,100419.27
2019-03-06T00:28:25.719Z,100422.30
2019-03-06T00:30:57.049Z,100429.67
2019-03-06T00:33:26.790Z,100434.02
2019-03-06T00:35:58.163Z,100434.88
2019-03-06T00:38:27.929Z,100427.94
2019-03-06T00:41:03.158Z,100431.84
2019-03-06T00:43:32.998Z,100430.97
2019-03-06T00:46:02.763Z,100431.84
2019-03-06T00:48:32.820Z,100437.91
2019-03-06T00:51:02.623Z,100433.14
2019-03-06T00:53:32.396Z,100433.59
2019-03-06T00:56:02.257Z,100434.89
2019-03-06T00:58:32.021Z,100440.50
2019-03-06T01:01:01.786Z,100441.82
2019-03-06T01:03:31.559Z,100447.03
2019-03-06T01:06:02.004Z,100445.28
2019-03-06T01:08:31.764Z,100445.27
2019-03-06T01:11:01.529Z,100447.46
2019-03-06T01:13:31.290Z,100456.13
2019-03-06T01:16:01.033Z,100457.00
2019-03-06T01:18:30.803Z,100456.99
2019-03-06T01:21:00.554Z,100461.74
2019-03-06T01:23:30.505Z,100458.71
2019-03-06T01:26:00.235Z,100461.33
2019-03-06T01:28:29.998Z,100471.30
2019-03-06T01:30:59.741Z,100463.47
2019-03-06T01:33:43.096Z,100468.23
2019-03-06T01:36:20.670Z,100475.19
2019-03-06T01:38:57.937Z,100474.31
2019-03-06T01:41:47.392Z,100481.70
2019-03-06T01:44:18.735Z,100485.59
2019-03-06T01:46:48.507Z,100487.31
2019-03-06T01:49:18.305Z,100489.05
2019-03-06T01:51:48.085Z,100490.75
2019-03-06T01:54:18.000Z,100504.20
2019-03-06T01:56:47.796Z,100496.81
2019-03-06T01:59:17.595Z,100502.44
2019-03-06T02:01:47.550Z,100497.23
2019-03-06T02:04:17.334Z,100500.70
2019-03-06T02:06:47.112Z,100497.22
2019-03-06T02:09:18.513Z,100509.35
2019-03-06T02:11:48.294Z,100507.21
2019-03-06T02:14:18.071Z,100502.86
2019-03-06T02:16:47.833Z,100508.05
2019-03-06T02:19:17.573Z,100510.22
2019-03-06T02:21:47.383Z,100521.50
2019-03-06T02:24:17.691Z,100528.87
2019-03-06T02:26:48.523Z,100533.62
2019-03-06T02:29:18.270Z,100531.91
2019-03-06T02:31:48.030Z,100530.13
2019-03-06T02:34:17.839Z,100533.16
2019-03-06T02:36:47.613Z,100542.25
2019-03-06T02:39:17.485Z,100543.53
2019-03-06T02:41:47.269Z,100540.97
2019-03-06T02:44:17.050Z,100534.84
2019-03-06T02:46:47.816Z,100544.41
2019-03-06T02:49:17.872Z,100549.58
2019-03-06T02:51:47.681Z,100548.27
2019-03-06T02:54:17.461Z,100555.63
2019-03-06T02:56:47.232Z,100562.09
2019-03-06T02:59:24.404Z,100561.62
2019-03-06T03:02:11.108Z,100565.53
2019-03-06T03:04:42.461Z,100572.44
2019-03-06T03:07:13.262Z,100572.02
2019-03-06T03:09:43.055Z,100574.98
2019-03-06T03:12:12.833Z,100577.17
2019-03-06T03:14:42.619Z,100581.07
2019-03-06T03:17:12.397Z,100578.89
2019-03-06T03:19:42.160Z,100580.60
2019-03-06T03:22:11.901Z,100583.63
2019-03-06T03:24:41.673Z,100587.52
2019-03-06T03:27:11.421Z,100590.97
2019-03-06T03:29:41.223Z,100592.25
2019-03-06T03:32:11.362Z,100597.44
2019-03-06T03:34:41.173Z,100596.09
2019-03-06T03:37:10.940Z,100607.80
2019-03-06T03:39:40.752Z,100606.97
2019-03-06T03:42:12.637Z,100613.83
2019-03-06T03:44:42.442Z,100614.72
2019-03-06T03:47:12.220Z,100619.96
2019-03-06T03:49:42.036Z,100618.19
2019-03-06T03:52:11.814Z,100617.77
2019-03-06T03:54:41.594Z,100626.91
2019-03-06T03:57:13.060Z,100620.37
2019-03-06T03:59:42.869Z,100624.33
2019-03-06T04:02:12.650Z,100630.41
2019-03-06T04:04:42.453Z,100632.11
2019-03-06T04:07:12.229Z,100631.70
2019-03-06T04:09:42.188Z,100632.11
2019-03-06T04:12:11.968Z,100640.80
2019-03-06T04:14:41.737Z,100645.10
2019-03-06T04:17:11.496Z,100644.20
2019-03-06T04:19:41.242Z,100652.45
2019-03-06T04:22:11.306Z,100651.52
2019-03-06T04:24:41.046Z,100661.06
2019-03-06T04:27:10.819Z,100662.72
2019-03-06T04:29:40.561Z,100668.77
2019-03-06T04:32:10.372Z,100663.55
2019-03-06T04:34:40.385Z,100668.27
2019-03-06T04:37:10.177Z,100675.16
2019-03-06T04:39:39.914Z,100672.58
2019-03-06T04:42:09.682Z,100676.41
2019-03-06T04:44:39.462Z,100682.86
2019-03-06T04:47:09.276Z,100687.97
2019-03-06T04:49:39.042Z,100688.40
2019-03-06T04:52:08.824Z,100690.05
2019-03-06T04:54:38.596Z,100696.95
2019-03-06T04:57:08.332Z,100702.13
2019-03-06T04:59:38.111Z,100700.40
2019-03-06T05:02:07.862Z,100705.09
2019-03-06T05:04:37.655Z,100696.46
2019-03-06T05:07:07.409Z,100707.24
2019-03-06T05:09:37.219Z,100712.41
2019-03-06T05:12:06.980Z,100708.06
2019-03-06T05:14:36.759Z,100709.73
2019-03-06T05:17:08.213Z,100713.19
2019-03-06T05:19:38.114Z,100717.00
2019-03-06T05:22:08.170Z,100722.20
2019-03-06T05:24:37.984Z,100728.20
2019-03-06T05:27:07.746Z,100726.45
2019-03-06T05:29:37.530Z,100728.61
2019-03-06T05:32:27.422Z,100732.49
2019-03-06T05:34:59.325Z,100730.34
2019-03-06T05:37:51.962Z,100734.67
2019-03-06T05:40:21.761Z,100735.55
2019-03-06T05:42:51.632Z,100742.45
2019-03-06T05:45:21.434Z,100744.23
2019-03-06T05:47:51.208Z,100742.95
2019-03-06T05:50:21.299Z,100742.61
2019-03-06T05:52:51.082Z,100744.48
2019-03-06T05:55:20.884Z,100748.95
2019-03-06T05:57:50.655Z,100746.45
2019-03-06T06:00:22.032Z,100750.89
2019-03-06T06:02:51.862Z,100753.09
2019-03-06T06:05:21.676Z,100750.56
2019-03-06T06:07:51.456Z,100753.72
2019-03-06T06:10:21.228Z,100752.88
2019-03-06T06:12:51.185Z,100754.72
2019-03-06T06:15:20.924Z,100760.41
2019-03-06T06:17:50.708Z,100773.48
2019-03-06T06:20:20.567Z,100768.83
2019-03-06T06:22:51.935Z,100772.40
2019-03-06T06:25:21.674Z,100769.87
2019-03-06T06:27:51.520Z,100778.52
2019-03-06T06:30:22.099Z,100782.86
2019-03-06T06:32:52.038Z,100784.66
2019-03-06T06:35:21.781Z,100775.63
2019-03-06T06:37:51.583Z,100783.52
2019-03-06T06:40:21.320Z,100780.13
2019-03-06T06:42:51.100Z,100778.45
2019-03-06T06:45:20.876Z,100777.19
2019-03-06T06:48:10.929Z,100778.59
2019-03-06T06:50:49.457Z,100782.53
2019-03-06T06:53:40.631Z,100784.34
2019-03-06T06:56:37.874Z,100788.28
2019-03-06T06:59:11.443Z,100795.66
2019-03-06T07:01:57.973Z,100793.53
2019-03-06T07:04:51.885Z,100800.52
2019-03-06T07:07:29.017Z,100802.29
2019-03-06T07:10:00.394Z,100791.00
2019-03-06T07:12:34.545Z,100797.11
2019-03-06T07:15:13.304Z,100802.75
2019-03-06T07:17:44.689Z,100801.03
2019-03-06T07:20:17.779Z,100799.74
2019-03-06T07:22:55.094Z,100808.00
2019-03-06T07:25:26.469Z,100810.60
2019-03-06T07:27:57.818Z,100808.89
2019-03-06T07:30:35.282Z,100808.02
2019-03-06T07:33:12.391Z,100811.06
2019-03-06T07:36:06.020Z,100808.03
2019-03-06T07:38:36.890Z,100803.69
2019-03-06T07:41:08.262Z,100808.50
2019-03-06T07:43:45.815Z,100810.25
2019-03-06T07:46:17.455Z,100807.63
2019-03-06T07:49:06.415Z,100818.48
2019-03-06T07:51:37.783Z,100825.02
2019-03-06T07:54:15.206Z,100822.83
2019-03-06T07:56:56.328Z,100823.72
2019-03-06T07:59:26.097Z,100828.05
2019-03-06T08:01:58.995Z,100822.83
2019-03-06T08:04:28.772Z,100821.05
2019-03-06T08:07:00.140Z,100825.41
2019-03-06T08:09:29.991Z,100827.17
2019-03-06T08:12:01.374Z,100823.67
2019-03-06T08:14:38.743Z,100824.97
2019-03-06T08:17:26.611Z,100831.95
2019-03-06T08:19:58.237Z,100834.94
2019-03-06T08:22:38.903Z,100838.41
2019-03-06T08:25:13.094Z,100838.82
2019-03-06T08:27:42.903Z,100833.14
2019-03-06T08:30:12.782Z,100836.19
2019-03-06T08:32:42.569Z,100836.58
2019-03-06T08:35:12.383Z,100841.80
2019-03-06T08:37:42.116Z,100836.95
2019-03-06T08:40:12.598Z,100840.41
2019-03-06T08:42:42.347Z,100839.92
2019-03-06T08:45:15.432Z,100839.41
2019-03-06T08:47:46.735Z,100842.47
2019-03-06T08:50:18.128Z,100836.33
2019-03-06T08:52:49.431Z,100838.91
2019-03-06T08:55:29.606Z,100840.17
2019-03-06T08:58:19.319Z,100843.63
2019-03-06T09:01:07.081Z,100844.50
2019-03-06T09:03:47.406Z,100849.66
2019-03-06T09:06:30.908Z,100851.39
2019-03-06T09:09:08.128Z,100842.19
2019-03-06T09:11:45.496Z,100842.05
2019-03-06T09:14:20.193Z,100842.49
2019-03-06T09:17:01.396Z,100838.94
2019-03-06T09:19:48.972Z,100829.67
2019-03-06T09:22:32.731Z,100830.05
2019-03-06T09:25:04.069Z,100832.55
2019-03-06T09:27:35.456Z,100821.95
2019-03-06T09:30:30.067Z,100828.39
2019-03-06T09:33:04.170Z,100832.69
2019-03-06T09:35:41.441Z,100833.63
2019-03-06T09:38:29.055Z,100832.25
2019-03-06T09:41:17.098Z,100837.00
2019-03-06T09:43:57.308Z,100826.00
2019-03-06T09:46:34.665Z,100824.59
2019-03-06T09:49:12.051Z,100825.80
2019-03-06T09:51:43.395Z,100819.92
2019-03-06T09:54:23.860Z,100820.25
2019-03-06T09:56:55.216Z,100812.22
2019-03-06T09:59:28.856Z,100812.50
2019-03-06T10:02:06.719Z,100809.34
2019-03-06T10:04:35.983Z,100810.94
2019-03-06T10:07:10.309Z,100812.57
2019-03-06T10:09:41.671Z,100802.84
2019-03-06T10:12:19.040Z,100805.30
2019-03-06T10:14:56.537Z,100794.70
2019-03-06T10:17:33.863Z,100783.55
2019-03-06T10:20:05.640Z,100788.98
2019-03-06T10:22:35.403Z,100787.62
2019-03-06T10:25:07.093Z,100779.59
2019-03-06T10:27:36.878Z,100781.25
2019-03-06T10:30:12.142Z,100784.33
2019-03-06T10:32:42.189Z,100785.08
2019-03-06T10:35:15.961Z,100787.20
2019-03-06T10:37:45.815Z,100778.41
2019-03-06T10:40:17.483Z,100769.95
2019-03-06T10:42:47.252Z,100765.13
2019-03-06T10:45:17.738Z,100765.58
2019-03-06T10:47:47.896Z,100763.25
2019-03-06T10:50:26.918Z,100762.63
2019-03-06T10:52:53.721Z,100762.95
2019-03-06T10:55:23.525Z,100759.36
2019-03-06T10:57:53.571Z,100764.42
2019-03-06T11:00:30.623Z,100768.31
2019-03-06T11:03:00.685Z,100770.01
2019-03-06T11:05:32.012Z,100760.16
2019-03-06T11:08:02.103Z,100754.73
2019-03-06T11:10:33.526Z,100758.02
2019-03-06T11:13:08.499Z,100756.70
2019-03-06T11:15:38.175Z,100750.94
2019-03-06T11:18:08.337Z,100747.11
2019-03-06T11:20:38.341Z,100735.26
2019-03-06T11:23:11.764Z,100731.50
2019-03-06T11:25:42.075Z,100723.27
2019-03-06T11:28:13.019Z,100732.68
2019-03-06T11:30:51.088Z,100730.75
2019-03-06T11:33:21.968Z,100730.97
2019-03-06T11:35:53.074Z,100712.45
2019-03-06T11:38:22.841Z,100714.67
2019-03-06T11:40:52.702Z,100707.70
2019-03-06T11:43:22.470Z,100709.98
2019-03-06T11:45:52.209Z,100708.57
2019-03-06T11:48:22.025Z,100707.80
2019-03-06T11:50:51.762Z,100694.50
2019-03-06T11:53:21.551Z,100688.52
2019-03-06T11:55:51.313Z,100693.22
2019-03-06T11:58:21.617Z,100693.16
2019-03-06T12:00:51.402Z,100689.66
2019-03-06T12:03:22.297Z,100682.55
2019-03-06T12:05:52.068Z,100684.66
2019-03-06T12:08:21.852Z,100687.19
2019-03-06T12:10:51.731Z,100689.28
2019-03-06T12:13:21.486Z,100677.66
2019-03-06T12:15:51.781Z,100674.42
2019-03-06T12:18:23.065Z,100665.77
2019-03-06T12:20:53.168Z,100663.30
2019-03-06T12:23:22.999Z,100649.67
2019-03-06T12:25:52.858Z,100637.82
2019-03-06T12:28:22.610Z,100636.11
2019-03-06T12:30:52.493Z,100637.14
2019-03-06T12:33:27.108Z,100627.92
2019-03-06T12:35:56.906Z,100621.08
2019-03-06T12:38:26.641Z,100619.66
2019-03-06T12:40:56.448Z,100611.31
2019-03-06T12:43:26.199Z,100605.97
2019-03-06T12:46:22.830Z,100603.02
2019-03-06T12:48:48.169Z,100593.22
2019-03-06T12:51:17.965Z,100585.44
2019-03-06T12:53:47.917Z,100576.67
2019-03-06T12:56:18.170Z,100573.04
2019-03-06T12:58:48.070Z,100573.28
2019-03-06T13:01:17.886Z,100573.08
2019-03-06T13:03:47.686Z,100574.84
2019-03-06T13:06:24.581Z,100574.36
2019-03-06T13:08:50.605Z,100571.27
2019-03-06T13:11:20.481Z,100571.77
2019-03-06T13:13:50.260Z,100558.72
2019-03-06T13:16:20.030Z,100557.12
2019-03-06T13:18:49.816Z,100551.75
2019-03-06T13:21:19.735Z,100550.81
2019-03-06T13:23:49.535Z,100557.09
2019-03-06T13:26:19.271Z,100544.36
2019-03-06T13:28:57.046Z,100543.95
2019-03-06T13:31:20.527Z,100538.50
2019-03-06T13:33:58.376Z,100538.77
2019-03-06T13:36:28.167Z,100539.14
2019-03-06T13:39:06.014Z,100531.31
2019-03-06T13:41:29.539Z,100523.55
2019-03-06T13:43:59.298Z,100526.78
2019-03-06T13:46:29.316Z,100520.64
2019-03-06T13:48:59.132Z,100521.05
2019-03-06T13:51:28.913Z,100506.03
2019-03-06T13:53:58.693Z,100506.98
2019-03-06T13:56:28.502Z,100500.77
2019-03-06T13:58:58.355Z,100492.06
2019-03-06T14:01:28.323Z,100487.02
2019-03-06T14:03:58.096Z,100488.61
2019-03-06T14:06:27.868Z,100491.17
2019-03-06T14:08:57.642Z,100486.42
2019-03-06T14:11:27.374Z,100496.59
2019-03-06T14:13:57.180Z,100501.00
2019-03-06T14:16:26.988Z,100492.91
2019-03-06T14:18:56.821Z,100490.80
2019-03-06T14:21:26.595Z,100479.64
2019-03-06T14:23:56.716Z,100473.88
2019-03-06T14:26:26.496Z,100467.70
2019-03-06T14:28:56.479Z,100460.66
2019-03-06T14:31:26.249Z,100461.26
2019-03-06T14:33:56.347Z,100459.27
2019-03-06T14:36:26.225Z,100457.50
2019-03-06T14:38:56.012Z,100452.52
2019-03-06T14:41:25.874Z,100447.41
2019-03-06T14:43:55.631Z,100443.98
2019-03-06T14:46:25.444Z,100439.88
2019-03-06T14:48:55.286Z,100438.90
2019-03-06T14:51:25.077Z,100441.30
2019-03-06T14:53:54.861Z,100435.95
2019-03-06T14:56:24.672Z,100438.31
2019-03-06T14:58:54.442Z,100445.05
2019-03-06T15:01:24.241Z,100438.08
2019-03-06T15:03:54.021Z,100434.69
2019-03-06T15:06:23.810Z,100433.41
2019-03-06T15:08:53.647Z,100423.36
2019-03-06T15:11:23.564Z,100422.60
2019-03-06T15:13:54.440Z,100417.33
2019-03-06T15:16:24.198Z,100399.77
2019-03-06T15:18:53.968Z,100388.85
2019-03-06T15:21:23.754Z,100384.48
2019-03-06T15:23:53.852Z,100385.01
2019-03-06T15:26:23.637Z,100384.45
2019-03-06T15:28:53.443Z,100373.53
2019-03-06T15:31:23.233Z,100365.94
2019-03-06T15:33:53.137Z,100364.32
2019-03-06T15:36:22.924Z,100358.70
2019-03-06T15:38:52.825Z,100358.48
2019-03-06T15:41:22.617Z,100348.61
2019-03-06T15:43:52.365Z,100348.72
2019-03-06T15:46:22.170Z,100347.13
2019-03-06T15:48:51.915Z,100341.59
2019-03-06T15:51:21.972Z,100339.48
2019-03-06T15:53:51.749Z,100338.37
2019-03-06T15:56:21.531Z,100334.50
2019-03-06T15:58:51.327Z,100340.77
2019-03-06T16:01:21.086Z,100338.73
2019-03-06T16:03:51.207Z,100334.84
2019-03-06T16:06:21.050Z,100332.36
2019-03-06T16:08:50.837Z,100329.48
2019-03-06T16:11:20.632Z,100318.64
2019-03-06T16:13:50.454Z,100318.43
2019-03-06T16:16:20.480Z,100313.85
2019-03-06T16:18:50.468Z,100316.09
2019-03-06T16:21:20.306Z,100314.05
2019-03-06T16:23:50.116Z,100319.89
2019-03-06T16:26:19.933Z,100320.53
2019-03-06T16:28:49.760Z,100328.19
2019-03-06T16:31:19.759Z,100321.36
2019-03-06T16:33:49.503Z,100316.16
2019-03-06T16:36:19.311Z,100309.75
2019-03-06T16:38:49.062Z,100309.97
2019-03-06T16:41:18.857Z,100303.43
2019-03-06T16:43:48.707Z,100301.31
2019-03-06T16:46:18.488Z,100297.48
2019-03-06T16:48:48.359Z,100295.88
2019-03-06T16:51:18.093Z,100289.05
2019-03-06T16:53:47.892Z,100284.78
2019-03-06T16:56:17.664Z,100291.37
2019-03-06T16:58:47.712Z,100297.28
2019-03-06T17:01:17.581Z,100286.09
2019-03-06T17:03:47.371Z,100287.94
2019-03-06T17:06:17.214Z,100280.95
2019-03-06T17:08:46.952Z,100280.98
2019-03-06T17:11:16.879Z,100287.63
2019-03-06T17:13:46.735Z,100289.89
2019-03-06T17:16:16.972Z,100280.70
2019-03-06T17:18:46.696Z,100281.27
2019-03-06T17:21:16.595Z,100279.59
2019-03-06T17:23:46.346Z,100274.34
2019-03-06T17:26:16.764Z,100271.33
2019-03-06T17:28:47.540Z,100275.70
2019-03-06T17:31:17.339Z,100261.30
2019-03-06T17:33:47.089Z,100255.69
2019-03-06T17:36:16.917Z,100240.84
2019-03-06T17:38:46.683Z,100237.44
2019-03-06T17:41:16.459Z,100230.06
2019-03-06T17:43:46.238Z,100223.14
2019-03-06T17:46:16.042Z,100216.22
2019-03-06T17:48:45.827Z,100224.15
2019-03-06T17:51:15.595Z,100226.83
2019-03-06T17:53:45.660Z,100228.25
2019-03-06T17:56:15.405Z,100238.34
2019-03-06T17:58:45.213Z,100238.77
2019-03-06T18:01:16.531Z,100230.01
2019-03-06T18:03:50.719Z,100225.23
2019-03-06T18:06:19.442Z,100230.03
2019-03-06T18:08:49.250Z,100230.06
2019-03-06T18:11:18.993Z,100227.13
2019-03-06T18:13:48.778Z,100224.45
2019-03-06T18:16:21.110Z,100222.27
2019-03-06T18:18:51.874Z,100217.61
2019-03-06T18:21:22.907Z,100212.45
2019-03-06T18:23:54.006Z,100203.80
2019-03-06T18:26:24.544Z,100204.66
2019-03-06T18:28:55.581Z,100192.93
2019-03-06T18:31:26.061Z,100190.84
2019-03-06T18:33:56.655Z,100190.95
2019-03-06T18:36:27.523Z,100189.77
2019-03-06T18:38:57.801Z,100184.58
2019-03-06T18:41:27.710Z,100184.58
2019-03-06T18:43:57.514Z,100182.80
2019-03-06T18:46:27.567Z,100181.98
2019-03-06T18:48:57.390Z,100180.44
2019-03-06T18:51:27.186Z,100179.23
2019-03-06T18:53:56.999Z,100167.14
2019-03-06T18:56:58.312Z,100160.73
2019-03-06T19:00:14.243Z,100157.78
2019-03-06T19:03:04.471Z,100156.15
2019-03-06T19:05:41.384Z,100145.39
2019-03-06T19:08:19.604Z,100142.73
2019-03-06T19:10:57.252Z,100132.17
2019-03-06T19:13:37.687Z,100131.30
2019-03-06T19:16:08.424Z,100126.02
2019-03-06T19:18:40.886Z,100117.71
2019-03-06T19:21:17.871Z,100112.47
2019-03-06T19:23:53.615Z,100113.80
2019-03-06T19:26:34.697Z,100109.35
2019-03-06T19:29:13.431Z,100117.16
2019-03-06T19:38:49.648Z,100092.19
2019-03-06T19:41:09.767Z,100087.50
2019-03-06T19:43:48.008Z,100078.86
2019-03-06T19:46:31.636Z,100082.34
2019-03-06T19:49:21.979Z,100076.73
2019-03-06T19:51:58.971Z,100068.11
2019-03-06T19:54:37.475Z,100068.20
2019-03-06T19:57:30.149Z,100072.06
2019-03-06T20:00:03.637Z,100065.19
2019-03-06T20:02:40.887Z,100059.10
2019-03-06T20:05:16.296Z,100057.34
2019-03-06T20:07:52.534Z,100051.30
2019-03-06T20:10:23.635Z,100057.45
2019-03-06T20:12:55.287Z,100060.05
2019-03-06T20:15:30.309Z,100064.42
2019-03-06T20:18:25.337Z,100059.16
2019-03-06T20:20:48.138Z,100061.27
2019-03-06T20:23:19.902Z,100064.39
2019-03-06T20:25:55.365Z,100059.73
2019-03-06T20:28:37.758Z,100062.80
2019-03-06T20:31:17.205Z,100054.98
2019-03-06T20:33:57.567Z,100054.55
2019-03-06T20:36:39.536Z,100058.11
2019-03-06T20:39:12.966Z,100050.72
2019-03-06T20:41:57.266Z,100049.88
2019-03-06T20:44:32.526Z,100050.40
2019-03-06T20:47:04.128Z,100043.44
2019-03-06T20:49:35.645Z,100039.50
2019-03-06T20:52:10.628Z,100037.41
2019-03-06T20:54:52.633Z,100026.09
2019-03-06T20:57:27.314Z,100031.78
2019-03-06T21:00:12.773Z,100033.51
2019-03-06T21:02:49.194Z,100021.75
2019-03-06T21:05:19.666Z,100017.45
2019-03-06T21:08:05.078Z,100015.33
2019-03-06T21:10:24.662Z,100012.81
2019-03-06T21:12:54.937Z,100007.16
2019-03-06T21:15:32.643Z,100007.58
2019-03-06T21:18:04.478Z,100000.59
2019-03-06T21:20:42.994Z,99997.21
2019-03-06T21:23:14.764Z,99989.34
2019-03-06T21:25:46.703Z,99985.86
2019-03-06T21:31:22.948Z,99974.56
2019-03-06T21:33:55.125Z,99975.02
2019-03-06T21:36:25.332Z,99973.23
2019-03-06T21:39:00.466Z,99962.34
2019-03-06T21:41:30.373Z,99962.79
2019-03-06T21:44:01.965Z,99959.31
2019-03-06T21:46:31.811Z,99953.71
2019-03-06T21:49:01.549Z,99948.90
2019-03-06T21:51:31.323Z,99951.45
2019-03-06T21:54:01.090Z,99940.98
2019-03-06T21:56:30.824Z,99939.30
2019-03-06T21:59:00.786Z,99939.31
2019-03-06T22:01:31.626Z,99929.27
2019-03-06T22:04:01.751Z,99930.58
2019-03-06T22:06:31.662Z,99921.44
2019-03-06T22:09:01.444Z,99923.20
2019-03-06T22:11:31.320Z,99919.72
2019-03-06T22:14:01.100Z,99917.13
2019-03-06T22:16:30.892Z,99908.78
2019-03-06T22:19:01.053Z,99910.53
2019-03-06T22:21:30.915Z,99899.53
2019-03-06T22:24:00.725Z,99897.45
2019-03-06T22:26:30.518Z,99898.33
2019-03-06T22:29:00.251Z,99901.86
2019-03-06T22:31:30.056Z,99897.55
2019-03-06T22:33:59.786Z,99894.48
2019-03-06T22:36:29.549Z,99891.45
2019-03-06T22:38:59.309Z,99889.64
2019-03-06T22:41:29.189Z,99893.20
2019-03-06T22:43:58.964Z,99892.50
2019-03-06T22:46:28.726Z,99881.80
2019-03-06T22:48:58.490Z,99882.38
2019-03-06T22:51:28.254Z,99873.14
2019-03-06T22:53:58.110Z,99864.80
2019-03-06T22:56:27.836Z,99856.00
2019-03-06T22:58:57.597Z,99847.80
2019-03-06T23:01:27.375Z,99839.42
2019-03-06T23:03:57.148Z,99839.84
2019-03-06T23:06:26.926Z,99837.69
2019-03-06T23:08:56.685Z,99836.33
2019-03-06T23:11:26.553Z,99833.72
2019-03-06T23:13:56.287Z,99832.44
2019-03-06T23:16:26.059Z,99828.42
2019-03-06T23:18:55.823Z,99827.17
2019-03-06T23:21:25.693Z,99818.07
2019-03-06T23:23:55.477Z,99812.86
2019-03-06T23:26:25.245Z,99809.00
2019-03-06T23:28:55.011Z,99801.59
2019-03-06T23:31:24.752Z,99798.17
2019-03-06T23:33:54.918Z,99792.55
2019-03-06T23:36:24.655Z,99786.40
2019-03-06T23:38:54.413Z,99788.56
2019-03-06T23:41:24.175Z,99783.45
2019-03-06T23:43:53.949Z,99780.47
2019-03-06T23:46:23.722Z,99772.15
2019-03-06T23:48:53.686Z,99770.45
2019-03-06T23:51:25.025Z,99768.70
2019-03-06T23:53:54.820Z,99759.99
2019-03-06T23:56:24.660Z,99759.94
2019-03-06T23:58:54.417Z,99750.84
